Time;durP1;ratioP1;P1;durP2;ratioP2;P2;SDS_P1;SDS_P2;PMS_P1;PMS_P2;Temp;Humidity;BMP_temperature;BMP_pressure;BME280_temperature;BME280_humidity;BME280_pressure;Samples;Min_cycle;Max_cycle;Signal;HPM_P1;HPM_P2
2023/08/11 00:01:59;;;;;;;;;;;24.50;50.70;;;;;;5093844;28;19977;-54
2023/08/11 00:04:27;;;;;;;;;;;24.50;50.80;;;;;;5093696;28;20012;-54
2023/08/11 00:06:55;;;;;;;;;;;24.50;50.80;;;;;;5093894;28;19924;-52
2023/08/11 00:09:22;;;;;;;;;;;24.50;50.80;;;;;;5092718;28;19924;-50
2023/08/11 00:11:50;;;;;;;;;;;24.50;50.90;;;;;;5093784;28;19928;-55
2023/08/11 00:14:17;;;;;;;;;;;24.50;50.90;;;;;;5093243;28;20401;-55
2023/08/11 00:16:44;;;;;;;;;;;24.50;50.90;;;;;;5093713;28;20702;-54
2023/08/11 00:19:11;;;;;;;;;;;24.50;50.90;;;;;;5094045;28;19925;-54
2023/08/11 00:21:38;;;;;;;;;;;24.50;51.00;;;;;;5093218;28;19954;-49
2023/08/11 00:24:05;;;;;;;;;;;24.50;51.50;;;;;;5093428;28;19924;-54
2023/08/11 00:26:32;;;;;;;;;;;24.50;51.00;;;;;;5092462;28;19931;-53
2023/08/11 00:28:59;;;;;;;;;;;24.50;51.00;;;;;;5093571;28;19924;-51
2023/08/11 00:31:27;;;;;;;;;;;24.50;51.00;;;;;;5093722;28;19971;-53
2023/08/11 00:33:54;;;;;;;;;;;24.50;51.00;;;;;;5093693;28;19967;-53
2023/08/11 00:36:21;;;;;;;;;;;24.40;50.90;;;;;;5093394;28;20351;-54
2023/08/11 00:38:49;;;;;;;;;;;24.50;51.00;;;;;;5093368;28;20018;-53
2023/08/11 00:41:16;;;;;;;;;;;24.50;51.00;;;;;;5093439;28;20389;-49
2023/08/11 00:43:43;;;;;;;;;;;24.40;51.00;;;;;;5093383;28;19947;-54
2023/08/11 00:46:11;;;;;;;;;;;24.40;51.10;;;;;;5092646;28;20015;-53
2023/08/11 00:48:38;;;;;;;;;;;24.40;51.00;;;;;;5093623;28;19924;-50
2023/08/11 00:51:05;;;;;;;;;;;24.50;51.10;;;;;;5093564;28;20326;-53
2023/08/11 00:53:33;;;;;;;;;;;24.40;51.00;;;;;;5093029;28;19935;-52
2023/08/11 00:56:02;;;;;;;;;;;24.40;51.00;;;;;;5093079;28;19925;-52
2023/08/11 00:58:30;;;;;;;;;;;24.40;51.10;;;;;;5093491;28;20312;-53
2023/08/11 01:00:57;;;;;;;;;;;24.40;51.60;;;;;;5092440;28;20372;-52
2023/08/11 01:03:25;;;;;;;;;;;24.40;51.10;;;;;;5093558;28;19924;-51
2023/08/11 01:06:12;;;;;;;;;;;24.40;51.10;;;;;;5092741;28;20277;-52
2023/08/11 01:08:55;;;;;;;;;;;24.40;51.10;;;;;;5092549;28;20264;-53
2023/08/11 01:11:27;;;;;;;;;;;24.40;51.10;;;;;;5092768;28;19931;-52
2023/08/11 01:14:00;;;;;;;;;;;24.40;51.10;;;;;;5093198;28;19963;-51
2023/08/11 01:16:29;;;;;;;;;;;24.40;51.10;;;;;;5093468;28;19974;-51
2023/08/11 01:18:56;;;;;;;;;;;24.40;51.10;;;;;;5093127;28;20005;-49
2023/08/11 01:21:24;;;;;;;;;;;24.40;51.10;;;;;;5093092;28;19924;-49
2023/08/11 01:23:52;;;;;;;;;;;24.40;51.20;;;;;;5093530;28;20257;-50
2023/08/11 01:26:19;;;;;;;;;;;24.40;51.10;;;;;;5092881;28;20014;-51
2023/08/11 01:28:47;;;;;;;;;;;24.40;51.10;;;;;;5091961;28;20050;-54
2023/08/11 01:31:14;;;;;;;;;;;24.40;51.20;;;;;;5092322;28;19924;-52
2023/08/11 01:33:41;;;;;;;;;;;24.40;51.10;;;;;;5096235;28;19924;-54
2023/08/11 01:36:08;;;;;;;;;;;24.40;51.10;;;;;;5096567;28;19924;-54
2023/08/11 01:38:35;;;;;;;;;;;24.40;51.10;;;;;;5097174;28;19924;-52
2023/08/11 01:41:02;;;;;;;;;;;24.40;51.10;;;;;;5096196;28;20184;-52
2023/08/11 01:43:29;;;;;;;;;;;24.40;51.30;;;;;;5096990;28;19977;-53
2023/08/11 01:45:57;;;;;;;;;;;24.40;51.10;;;;;;5096635;28;19924;-49
2023/08/11 01:48:25;;;;;;;;;;;24.40;51.10;;;;;;5096780;28;19954;-52
2023/08/11 01:50:52;;;;;;;;;;;24.40;51.10;;;;;;5096288;28;19924;-51
2023/08/11 01:53:20;;;;;;;;;;;24.40;51.00;;;;;;5094842;28;19939;-52
2023/08/11 01:55:48;;;;;;;;;;;24.40;51.00;;;;;;5096289;28;20294;-49
2023/08/11 01:58:15;;;;;;;;;;;24.40;51.00;;;;;;5096753;28;19924;-52
2023/08/11 02:00:41;;;;;;;;;;;24.40;51.00;;;;;;5096249;28;19970;-53
2023/08/11 02:03:08;;;;;;;;;;;24.40;51.00;;;;;;5095780;28;19924;-54
2023/08/11 02:05:36;;;;;;;;;;;24.40;51.00;;;;;;5095964;28;19924;-53
2023/08/11 02:08:04;;;;;;;;;;;24.40;51.00;;;;;;5096085;28;19924;-51
2023/08/11 02:10:31;;;;;;;;;;;24.40;51.00;;;;;;5095958;28;19924;-53
2023/08/11 02:12:58;;;;;;;;;;;24.40;51.00;;;;;;5096486;28;19928;-50
2023/08/11 02:15:25;;;;;;;;;;;24.40;51.00;;;;;;5096375;28;20383;-53
2023/08/11 02:17:52;;;;;;;;;;;24.40;51.00;;;;;;5095949;28;19925;-52
2023/08/11 02:20:21;;;;;;;;;;;24.40;51.00;;;;;;5096361;28;20007;-52
2023/08/11 02:22:50;;;;;;;;;;;24.40;51.00;;;;;;5094786;28;20279;-54
2023/08/11 02:25:17;;;;;;;;;;;24.40;51.00;;;;;;5094573;28;19932;-51
2023/08/11 02:27:44;;;;;;;;;;;24.30;51.00;;;;;;5095766;28;19924;-51
2023/08/11 02:30:12;;;;;;;;;;;24.30;51.00;;;;;;5095965;28;20319;-51
2023/08/11 02:32:39;;;;;;;;;;;24.40;51.10;;;;;;5095583;28;19924;-53
2023/08/11 02:35:06;;;;;;;;;;;24.30;51.10;;;;;;5095694;28;19975;-51
2023/08/11 02:37:33;;;;;;;;;;;24.40;51.10;;;;;;5096102;28;19931;-50
2023/08/11 02:40:00;;;;;;;;;;;24.30;51.10;;;;;;5095735;28;19978;-51
2023/08/11 02:42:28;;;;;;;;;;;24.30;51.10;;;;;;5089611;28;19951;-55
2023/08/11 02:44:54;;;;;;;;;;;24.30;51.10;;;;;;5094208;28;19927;-53
2023/08/11 02:47:21;;;;;;;;;;;24.30;51.10;;;;;;5095265;28;19925;-51
2023/08/11 02:49:48;;;;;;;;;;;24.30;51.20;;;;;;5095580;28;20315;-54
2023/08/11 02:52:16;;;;;;;;;;;24.30;51.20;;;;;;5094902;28;19924;-53
2023/08/11 02:54:44;;;;;;;;;;;24.30;51.20;;;;;;5094882;28;19924;-55
2023/08/11 02:57:11;;;;;;;;;;;24.30;51.20;;;;;;5095490;28;19924;-51
2023/08/11 02:59:38;;;;;;;;;;;24.30;51.20;;;;;;5094931;28;19935;-51
2023/08/11 03:02:07;;;;;;;;;;;24.30;51.20;;;;;;5094765;28;19924;-54
2023/08/11 03:04:36;;;;;;;;;;;24.30;51.20;;;;;;5093426;28;20102;-55
2023/08/11 03:07:05;;;;;;;;;;;24.30;51.20;;;;;;5095333;28;20011;-53
2023/08/11 03:09:32;;;;;;;;;;;24.30;51.20;;;;;;5095046;28;20312;-51
2023/08/11 03:11:59;;;;;;;;;;;24.30;51.20;;;;;;5094044;28;20364;-54
2023/08/11 03:14:26;;;;;;;;;;;24.30;51.20;;;;;;5094307;28;19924;-54
2023/08/11 03:16:54;;;;;;;;;;;24.30;51.20;;;;;;5094378;28;19924;-54
2023/08/11 03:19:21;;;;;;;;;;;24.20;51.20;;;;;;5094847;28;19931;-56
2023/08/11 03:21:48;;;;;;;;;;;24.30;51.30;;;;;;5094374;28;19932;-50
2023/08/11 03:24:15;;;;;;;;;;;24.30;51.30;;;;;;5093717;28;19993;-55
2023/08/11 03:26:42;;;;;;;;;;;24.20;51.20;;;;;;5092568;28;19928;-53
2023/08/11 03:29:09;;;;;;;;;;;24.30;51.30;;;;;;5094450;28;19932;-54
2023/08/11 03:31:37;;;;;;;;;;;24.20;51.20;;;;;;5094715;28;20332;-56
2023/08/11 03:34:04;;;;;;;;;;;24.30;51.30;;;;;;5094197;28;20442;-56
2023/08/11 03:36:31;;;;;;;;;;;24.30;51.30;;;;;;5094794;28;19931;-56
2023/08/11 03:38:58;;;;;;;;;;;24.20;51.20;;;;;;5094360;28;19924;-54
2023/08/11 03:41:25;;;;;;;;;;;24.20;51.20;;;;;;5094003;28;19978;-53
2023/08/11 03:43:52;;;;;;;;;;;24.20;51.20;;;;;;5093926;28;19959;-52
2023/08/11 03:46:19;;;;;;;;;;;24.30;51.30;;;;;;5092379;28;19932;-50
2023/08/11 03:48:46;;;;;;;;;;;24.30;51.30;;;;;;5094191;28;19932;-52
2023/08/11 03:51:13;;;;;;;;;;;24.20;51.20;;;;;;5093777;28;20018;-54
2023/08/11 03:53:40;;;;;;;;;;;24.30;51.20;;;;;;5092765;28;20265;-51
2023/08/11 03:56:07;;;;;;;;;;;24.20;51.10;;;;;;5094192;28;20012;-54
2023/08/11 03:58:35;;;;;;;;;;;24.30;51.20;;;;;;5094207;28;19924;-51
2023/08/11 04:01:02;;;;;;;;;;;24.30;51.10;;;;;;5093335;28;19931;-50
2023/08/11 04:03:31;;;;;;;;;;;24.30;51.10;;;;;;5093883;28;20007;-50
2023/08/11 04:05:58;;;;;;;;;;;24.30;51.20;;;;;;5093347;28;20398;-50
2023/08/11 04:08:26;;;;;;;;;;;24.30;50.90;;;;;;5092427;28;19973;-51
2023/08/11 04:10:54;;;;;;;;;;;24.30;50.90;;;;;;5093547;28;19931;-51
2023/08/11 04:13:21;;;;;;;;;;;24.30;50.90;;;;;;5093307;28;19924;-53
2023/08/11 04:15:48;;;;;;;;;;;24.30;50.90;;;;;;5093999;28;19947;-49
2023/08/11 04:18:19;;;;;;;;;;;24.30;50.80;;;;;;5093673;28;19977;-51
2023/08/11 04:20:49;;;;;;;;;;;24.30;50.70;;;;;;5093431;28;19928;-51
2023/08/11 04:23:16;;;;;;;;;;;24.30;50.70;;;;;;5093769;28;19953;-50
2023/08/11 04:25:43;;;;;;;;;;;24.40;50.70;;;;;;5093126;28;19947;-54
2023/08/11 04:28:10;;;;;;;;;;;24.40;50.70;;;;;;5092863;28;19924;-55
2023/08/11 04:30:38;;;;;;;;;;;24.40;50.70;;;;;;5083219;28;20015;-52
2023/08/11 04:33:05;;;;;;;;;;;24.40;50.60;;;;;;5083553;28;19925;-51
2023/08/11 04:35:33;;;;;;;;;;;24.40;50.60;;;;;;5075968;28;19924;-54
2023/08/11 04:38:00;;;;;;;;;;;24.30;50.60;;;;;;5074616;28;19929;-53
2023/08/11 04:40:27;;;;;;;;;;;24.30;50.60;;;;;;5078051;28;19924;-53
2023/08/11 04:42:54;;;;;;;;;;;24.20;50.60;;;;;;5073250;28;19946;-48
2023/08/11 04:45:21;;;;;;;;;;;24.10;50.90;;;;;;5072724;28;19931;-49
2023/08/11 04:47:48;;;;;;;;;;;23.90;51.20;;;;;;5073450;28;19929;-53
2023/08/11 04:50:15;;;;;;;;;;;23.60;51.60;;;;;;5091588;28;19928;-55
2023/08/11 04:52:42;;;;;;;;;;;23.30;51.10;;;;;;5092940;28;19950;-55
2023/08/11 04:55:13;;;;;;;;;;;23.00;49.60;;;;;;5092490;28;19977;-54
2023/08/11 04:57:40;;;;;;;;;;;22.70;48.70;;;;;;5080259;28;19931;-55
2023/08/11 05:00:13;;;;;;;;;;;22.40;47.90;;;;;;5085577;28;19931;-56
2023/08/11 05:02:44;;;;;;;;;;;22.10;47.50;;;;;;5088328;28;20281;-55
2023/08/11 05:05:11;;;;;;;;;;;21.70;47.30;;;;;;5085069;28;20411;-56
2023/08/11 05:07:39;;;;;;;;;;;21.40;47.30;;;;;;5105994;28;19928;-55
2023/08/11 05:10:07;;;;;;;;;;;21.10;48.50;;;;;;5096125;28;20435;-55
2023/08/11 05:12:34;;;;;;;;;;;20.90;49.70;;;;;;5096959;28;20372;-56
2023/08/11 05:15:03;;;;;;;;;;;20.70;48.70;;;;;;5092385;28;19986;-51
2023/08/11 05:17:31;;;;;;;;;;;20.40;49.10;;;;;;5081535;28;20438;-54
2023/08/11 05:19:58;;;;;;;;;;;20.20;50.20;;;;;;5074956;28;19970;-55
2023/08/11 05:22:25;;;;;;;;;;;20.10;49.20;;;;;;5076953;28;19924;-57
2023/08/11 05:24:52;;;;;;;;;;;19.90;51.10;;;;;;5073410;28;20381;-53
2023/08/11 05:27:19;;;;;;;;;;;19.70;50.50;;;;;;5077957;28;19939;-56
2023/08/11 05:29:48;;;;;;;;;;;19.60;50.90;;;;;;5076682;28;20007;-55
2023/08/11 05:32:15;;;;;;;;;;;19.50;50.40;;;;;;5076004;28;19932;-53
2023/08/11 05:34:42;;;;;;;;;;;19.40;51.30;;;;;;5081844;28;19924;-57
2023/08/11 05:37:09;;;;;;;;;;;19.30;52.00;;;;;;5078524;28;19932;-53
2023/08/11 05:39:40;;;;;;;;;;;19.20;51.90;;;;;;5082556;28;19950;-56
2023/08/11 05:42:08;;;;;;;;;;;19.10;51.70;;;;;;5079949;28;19931;-53
2023/08/11 05:44:35;;;;;;;;;;;19.00;52.60;;;;;;5075623;28;19932;-58
2023/08/11 05:47:03;;;;;;;;;;;19.00;52.30;;;;;;5074731;28;19998;-57
2023/08/11 05:49:30;;;;;;;;;;;18.90;51.70;;;;;;5083137;28;20357;-60
2023/08/11 05:51:57;;;;;;;;;;;18.90;52.90;;;;;;5075628;28;19924;-59
2023/08/11 05:54:25;;;;;;;;;;;18.80;53.20;;;;;;5077374;28;20015;-60
2023/08/11 05:56:54;;;;;;;;;;;18.70;52.30;;;;;;5076100;28;19932;-58
2023/08/11 05:59:21;;;;;;;;;;;18.70;52.80;;;;;;5078687;28;20388;-59
2023/08/11 06:01:48;;;;;;;;;;;18.60;54.00;;;;;;5075696;28;19932;-59
2023/08/11 06:04:16;;;;;;;;;;;18.60;53.40;;;;;;5073150;28;19935;-59
2023/08/11 06:06:43;;;;;;;;;;;18.50;53.50;;;;;;5079272;28;19981;-61
2023/08/11 06:09:10;;;;;;;;;;;18.50;53.90;;;;;;5075777;28;19932;-60
2023/08/11 06:11:37;;;;;;;;;;;18.50;53.50;;;;;;5075841;28;20348;-60
2023/08/11 06:14:04;;;;;;;;;;;18.50;53.00;;;;;;5080642;28;19929;-60
2023/08/11 06:16:31;;;;;;;;;;;18.50;53.70;;;;;;5077619;28;19924;-59
2023/08/11 06:18:59;;;;;;;;;;;18.50;54.10;;;;;;5076227;28;19978;-59
2023/08/11 06:21:27;;;;;;;;;;;18.50;53.20;;;;;;5077597;28;19939;-60
2023/08/11 06:23:54;;;;;;;;;;;18.50;53.20;;;;;;5078280;28;19932;-59
2023/08/11 06:26:21;;;;;;;;;;;18.50;54.50;;;;;;5075705;28;19924;-60
2023/08/11 06:28:48;;;;;;;;;;;18.50;53.70;;;;;;5075604;28;19925;-59
2023/08/11 06:31:18;;;;;;;;;;;18.50;53.20;;;;;;5075511;28;19928;-60
2023/08/11 06:33:46;;;;;;;;;;;18.60;54.10;;;;;;5074252;28;19924;-59
2023/08/11 06:36:13;;;;;;;;;;;18.60;54.30;;;;;;5075515;28;19924;-59
2023/08/11 06:38:40;;;;;;;;;;;18.60;53.20;;;;;;5068612;28;19933;-60
2023/08/11 06:41:07;;;;;;;;;;;18.60;54.00;;;;;;5071281;28;20379;-60
2023/08/11 06:43:35;;;;;;;;;;;18.60;54.50;;;;;;5082450;28;19932;-59
2023/08/11 06:46:02;;;;;;;;;;;18.50;54.00;;;;;;5078763;28;19931;-60
2023/08/11 06:48:30;;;;;;;;;;;18.50;53.50;;;;;;5076918;28;20027;-60
2023/08/11 06:50:57;;;;;;;;;;;18.50;54.10;;;;;;5074353;28;19932;-59
2023/08/11 06:53:24;;;;;;;;;;;18.50;54.00;;;;;;5074939;28;19929;-59
2023/08/11 06:55:51;;;;;;;;;;;18.50;53.40;;;;;;5072116;28;19989;-59
2023/08/11 06:58:19;;;;;;;;;;;18.40;53.80;;;;;;5082091;28;19932;-60
2023/08/11 07:00:48;;;;;;;;;;;18.40;53.90;;;;;;5072861;28;20445;-60
2023/08/11 07:03:16;;;;;;;;;;;18.40;53.80;;;;;;5075199;28;19928;-59
2023/08/11 07:05:43;;;;;;;;;;;18.30;54.00;;;;;;5072332;28;19924;-60
2023/08/11 07:08:11;;;;;;;;;;;18.30;54.90;;;;;;5076786;28;19931;-60
2023/08/11 07:10:39;;;;;;;;;;;18.30;54.00;;;;;;5074570;28;19925;-59
2023/08/11 07:13:07;;;;;;;;;;;18.30;53.60;;;;;;5076142;28;20419;-59
2023/08/11 07:15:34;;;;;;;;;;;18.30;54.10;;;;;;5075280;28;19924;-59
2023/08/11 07:18:04;;;;;;;;;;;18.30;54.80;;;;;;5071032;28;19932;-60
2023/08/11 07:20:31;;;;;;;;;;;18.30;54.20;;;;;;5078813;28;19936;-60
2023/08/11 07:22:58;;;;;;;;;;;18.20;54.00;;;;;;5074101;28;19924;-59
2023/08/11 07:25:26;;;;;;;;;;;18.20;54.60;;;;;;5072408;28;19935;-59
2023/08/11 07:27:53;;;;;;;;;;;18.20;54.50;;;;;;5073255;28;20277;-61
2023/08/11 07:30:20;;;;;;;;;;;18.20;53.90;;;;;;5074471;28;19924;-58
2023/08/11 07:32:47;;;;;;;;;;;18.20;54.50;;;;;;5075571;28;19932;-59
2023/08/11 07:35:14;;;;;;;;;;;18.10;54.10;;;;;;5071515;28;19924;-59
2023/08/11 07:37:41;;;;;;;;;;;18.10;53.90;;;;;;5074698;28;19985;-59
2023/08/11 07:40:09;;;;;;;;;;;18.10;54.20;;;;;;5072020;28;19932;-59
2023/08/11 07:42:36;;;;;;;;;;;18.10;54.40;;;;;;5057908;28;19942;-56
2023/08/11 07:45:03;;;;;;;;;;;18.10;55.40;;;;;;5070878;28;20381;-59
2023/08/11 07:47:30;;;;;;;;;;;18.10;55.60;;;;;;5076801;28;19932;-58
2023/08/11 07:49:57;;;;;;;;;;;18.10;56.10;;;;;;5079011;28;19964;-58
2023/08/11 07:52:25;;;;;;;;;;;18.10;56.20;;;;;;5073720;28;19931;-58
2023/08/11 07:54:51;;;;;;;;;;;18.10;54.80;;;;;;5068084;28;19986;-59
2023/08/11 07:57:19;;;;;;;;;;;18.10;56.90;;;;;;5072261;28;19958;-60
2023/08/11 07:59:46;;;;;;;;;;;18.20;54.40;;;;;;5065166;28;19932;-60
2023/08/11 08:02:13;;;;;;;;;;;18.20;54.20;;;;;;5068429;28;19928;-60
2023/08/11 08:04:40;;;;;;;;;;;18.20;57.60;;;;;;5067369;28;19939;-59
2023/08/11 08:07:07;;;;;;;;;;;18.20;54.60;;;;;;5072679;28;19931;-60
2023/08/11 08:09:34;;;;;;;;;;;18.20;57.00;;;;;;5077424;28;19931;-60
2023/08/11 08:12:01;;;;;;;;;;;18.20;56.30;;;;;;5072351;28;19931;-59
2023/08/11 08:14:29;;;;;;;;;;;18.20;57.20;;;;;;5076797;28;19928;-59
2023/08/11 08:16:58;;;;;;;;;;;18.20;57.00;;;;;;5072503;28;19958;-60
2023/08/11 08:19:25;;;;;;;;;;;18.30;56.60;;;;;;5072779;28;19929;-60
2023/08/11 08:21:52;;;;;;;;;;;18.20;56.20;;;;;;5068452;28;19929;-60
2023/08/11 08:24:19;;;;;;;;;;;18.30;55.70;;;;;;5076838;28;20719;-57
2023/08/11 08:26:47;;;;;;;;;;;18.30;55.80;;;;;;5072414;28;19959;-60
2023/08/11 08:29:14;;;;;;;;;;;18.30;55.60;;;;;;5081786;28;19925;-59
2023/08/11 08:31:41;;;;;;;;;;;18.30;56.90;;;;;;5070735;28;19924;-57
2023/08/11 08:34:08;;;;;;;;;;;18.30;55.70;;;;;;5078120;28;20377;-62
2023/08/11 08:36:36;;;;;;;;;;;18.40;55.00;;;;;;5069938;28;20023;-60
2023/08/11 08:39:04;;;;;;;;;;;18.40;55.20;;;;;;5075846;28;19928;-60
2023/08/11 08:41:37;;;;;;;;;;;18.40;54.60;;;;;;5068710;28;19924;-59
2023/08/11 08:44:04;;;;;;;;;;;18.40;54.90;;;;;;5074264;28;20368;-56
2023/08/11 08:46:32;;;;;;;;;;;18.40;54.60;;;;;;5075938;28;20411;-59
2023/08/11 08:49:06;;;;;;;;;;;18.50;54.60;;;;;;5079719;28;19951;-54
2023/08/11 08:51:34;;;;;;;;;;;18.50;54.90;;;;;;5072632;28;19951;-59
2023/08/11 08:54:01;;;;;;;;;;;18.50;55.80;;;;;;5073589;28;19948;-57
2023/08/11 08:56:28;;;;;;;;;;;18.50;54.80;;;;;;5075298;28;20399;-57
2023/08/11 08:58:55;;;;;;;;;;;18.50;55.00;;;;;;5076469;28;19933;-59
2023/08/11 09:01:24;;;;;;;;;;;18.50;55.80;;;;;;5075616;28;19986;-58
2023/08/11 09:03:52;;;;;;;;;;;18.50;55.60;;;;;;5074707;28;20714;-58
2023/08/11 09:06:20;;;;;;;;;;;18.50;56.00;;;;;;5072705;28;20292;-57
2023/08/11 09:08:47;;;;;;;;;;;18.50;56.40;;;;;;5077655;28;19931;-56
2023/08/11 09:11:18;;;;;;;;;;;18.50;55.60;;;;;;5072069;28;19924;-58
2023/08/11 09:13:45;;;;;;;;;;;18.50;56.40;;;;;;5073130;28;19931;-57
2023/08/11 09:16:13;;;;;;;;;;;18.50;55.10;;;;;;5074279;28;19932;-56
2023/08/11 09:18:40;;;;;;;;;;;18.50;56.00;;;;;;5078263;28;19929;-58
2023/08/11 09:21:08;;;;;;;;;;;18.60;55.90;;;;;;5072719;28;20035;-58
2023/08/11 09:23:36;;;;;;;;;;;18.60;55.60;;;;;;5075558;28;19928;-59
2023/08/11 09:26:03;;;;;;;;;;;18.60;56.00;;;;;;5077873;28;19935;-59
2023/08/11 09:28:30;;;;;;;;;;;18.60;55.30;;;;;;5072308;28;20458;-59
2023/08/11 09:30:58;;;;;;;;;;;18.70;56.10;;;;;;5077314;28;19931;-60
2023/08/11 09:33:25;;;;;;;;;;;18.70;55.50;;;;;;5072269;28;19924;-59
2023/08/11 09:35:53;;;;;;;;;;;18.70;56.00;;;;;;5073853;28;20018;-59
2023/08/11 09:38:20;;;;;;;;;;;18.70;55.50;;;;;;5078621;28;20399;-58
2023/08/11 09:40:48;;;;;;;;;;;18.70;55.30;;;;;;5077647;28;19978;-58
2023/08/11 09:43:15;;;;;;;;;;;18.80;56.00;;;;;;5076262;28;20023;-59
2023/08/11 09:45:42;;;;;;;;;;;18.80;55.20;;;;;;5080530;28;19982;-58
2023/08/11 09:48:10;;;;;;;;;;;18.80;55.60;;;;;;5076207;28;20406;-59
2023/08/11 09:50:38;;;;;;;;;;;18.80;55.70;;;;;;5073436;28;20015;-58
2023/08/11 09:53:06;;;;;;;;;;;18.80;55.30;;;;;;5069741;28;19935;-59
2023/08/11 09:55:35;;;;;;;;;;;18.80;55.80;;;;;;5082491;28;19936;-58
2023/08/11 09:58:03;;;;;;;;;;;18.90;55.10;;;;;;5101457;28;19924;-58
2023/08/11 10:00:31;;;;;;;;;;;18.90;54.70;;;;;;5078864;28;20377;-59
2023/08/11 10:03:09;;;;;;;;;;;18.90;54.70;;;;;;5077448;28;20359;-60
2023/08/11 10:05:41;;;;;;;;;;;18.90;55.00;;;;;;5077141;28;19932;-60
2023/08/11 10:08:18;;;;;;;;;;;18.90;54.60;;;;;;5081512;28;20373;-59
2023/08/11 10:10:45;;;;;;;;;;;18.90;54.50;;;;;;5071956;28;19983;-59
2023/08/11 10:13:19;;;;;;;;;;;18.90;55.30;;;;;;5075229;28;19925;-59
2023/08/11 10:15:48;;;;;;;;;;;18.90;54.60;;;;;;5080216;28;19971;-60
2023/08/11 10:18:19;;;;;;;;;;;18.90;54.00;;;;;;5083512;28;19990;-60
2023/08/11 10:20:49;;;;;;;;;;;18.90;53.40;;;;;;5077133;28;20409;-56
2023/08/11 10:23:20;;;;;;;;;;;18.90;53.30;;;;;;5087610;28;20446;-57
2023/08/11 10:25:47;;;;;;;;;;;18.90;53.40;;;;;;5081999;28;20309;-56
2023/08/11 10:28:15;;;;;;;;;;;18.80;54.40;;;;;;5088416;28;19963;-58
2023/08/11 10:30:43;;;;;;;;;;;18.80;53.30;;;;;;5079880;28;20360;-58
2023/08/11 10:33:10;;;;;;;;;;;18.80;53.40;;;;;;5075846;28;19928;-56
2023/08/11 10:35:47;;;;;;;;;;;18.80;53.70;;;;;;5085321;28;19951;-57
2023/08/11 10:38:28;;;;;;;;;;;18.80;53.80;;;;;;5082352;28;20288;-55
2023/08/11 10:40:58;;;;;;;;;;;18.80;53.40;;;;;;5076353;28;20720;-56
2023/08/11 10:43:30;;;;;;;;;;;18.80;54.20;;;;;;5071210;28;20196;-53
2023/08/11 10:46:13;;;;;;;;;;;18.80;54.70;;;;;;5080219;28;21308;-55
2023/08/11 10:48:41;;;;;;;;;;;18.80;54.40;;;;;;5084628;28;19938;-55
2023/08/11 10:51:29;;;;;;;;;;;18.80;54.30;;;;;;5070687;28;19928;-55
2023/08/11 10:53:57;;;;;;;;;;;18.80;53.90;;;;;;5082236;28;20003;-56
2023/08/11 10:56:27;;;;;;;;;;;18.80;54.00;;;;;;5078289;28;19977;-57
2023/08/11 10:59:11;;;;;;;;;;;18.80;53.70;;;;;;5077857;28;20080;-57
2023/08/11 11:01:40;;;;;;;;;;;18.80;53.30;;;;;;5076463;28;19970;-56
2023/08/11 11:04:08;;;;;;;;;;;18.90;53.10;;;;;;5077754;28;20002;-54
2023/08/11 11:06:35;;;;;;;;;;;18.90;53.40;;;;;;5079627;28;19928;-55
2023/08/11 11:09:03;;;;;;;;;;;18.90;53.20;;;;;;5081534;28;20307;-57
2023/08/11 11:11:30;;;;;;;;;;;18.90;53.20;;;;;;5081819;28;20317;-58
2023/08/11 11:13:58;;;;;;;;;;;18.80;53.90;;;;;;5081831;28;19924;-57
2023/08/11 11:16:26;;;;;;;;;;;18.90;54.20;;;;;;5081537;28;19931;-56
2023/08/11 11:18:53;;;;;;;;;;;18.80;54.50;;;;;;5083188;28;19932;-56
2023/08/11 11:21:22;;;;;;;;;;;18.90;54.10;;;;;;5073910;28;21359;-58
2023/08/11 11:23:50;;;;;;;;;;;18.90;54.60;;;;;;5080429;28;20334;-57
2023/08/11 11:26:22;;;;;;;;;;;18.90;53.20;;;;;;5076316;28;19924;-58
2023/08/11 11:28:50;;;;;;;;;;;18.90;53.30;;;;;;5078676;28;19925;-58
2023/08/11 11:31:18;;;;;;;;;;;19.00;53.00;;;;;;5075500;28;19924;-59
2023/08/11 11:33:45;;;;;;;;;;;19.00;53.80;;;;;;5064487;28;19940;-56
2023/08/11 11:36:13;;;;;;;;;;;18.90;53.00;;;;;;5077663;28;19933;-55
2023/08/11 11:38:40;;;;;;;;;;;18.90;52.90;;;;;;5076407;28;19932;-56
2023/08/11 11:41:11;;;;;;;;;;;18.90;53.40;;;;;;5081544;28;19938;-57
2023/08/11 11:43:39;;;;;;;;;;;18.90;53.20;;;;;;5081400;28;19925;-54
2023/08/11 11:46:14;;;;;;;;;;;18.90;52.90;;;;;;5077513;28;19970;-57
2023/08/11 11:48:44;;;;;;;;;;;18.90;53.80;;;;;;5084402;28;19924;-56
2023/08/11 11:51:11;;;;;;;;;;;18.90;53.40;;;;;;5071427;28;20015;-54
2023/08/11 11:53:39;;;;;;;;;;;18.90;53.30;;;;;;5069319;28;20023;-56
2023/08/11 11:56:09;;;;;;;;;;;19.00;53.40;;;;;;5073847;28;19929;-59
2023/08/11 11:58:37;;;;;;;;;;;19.00;53.70;;;;;;5073089;28;20026;-58
2023/08/11 12:01:21;;;;;;;;;;;19.00;54.20;;;;;;5077355;28;19978;-58
2023/08/11 12:03:49;;;;;;;;;;;19.00;54.60;;;;;;5095651;28;20006;-58
2023/08/11 12:06:20;;;;;;;;;;;19.00;54.50;;;;;;5070300;28;19932;-58
2023/08/11 12:08:51;;;;;;;;;;;19.00;54.10;;;;;;5081670;28;19970;-58
2023/08/11 12:11:25;;;;;;;;;;;19.00;54.00;;;;;;5082649;28;19924;-58
2023/08/11 12:13:52;;;;;;;;;;;19.00;53.30;;;;;;5086478;28;19928;-58
2023/08/11 12:16:20;;;;;;;;;;;19.00;53.20;;;;;;5078378;28;19932;-58
2023/08/11 12:18:47;;;;;;;;;;;19.00;53.90;;;;;;5080436;28;19932;-58
2023/08/11 12:21:16;;;;;;;;;;;19.10;53.80;;;;;;5082401;28;20253;-59
2023/08/11 12:23:43;;;;;;;;;;;19.10;53.80;;;;;;5084071;28;19950;-58
2023/08/11 12:26:10;;;;;;;;;;;19.10;53.90;;;;;;5084257;28;19931;-58
2023/08/11 12:28:39;;;;;;;;;;;19.10;54.50;;;;;;5080274;28;19933;-59
2023/08/11 12:31:07;;;;;;;;;;;19.10;54.10;;;;;;5080271;28;19928;-58
2023/08/11 12:33:38;;;;;;;;;;;19.10;54.40;;;;;;5082498;28;19932;-58
2023/08/11 12:36:05;;;;;;;;;;;19.10;54.30;;;;;;5080710;28;19951;-58
2023/08/11 12:38:33;;;;;;;;;;;19.10;54.80;;;;;;5083155;28;19932;-59
2023/08/11 12:41:00;;;;;;;;;;;19.10;54.30;;;;;;5085247;28;19924;-58
2023/08/11 12:43:27;;;;;;;;;;;19.20;54.60;;;;;;5081568;28;19970;-58
2023/08/11 12:45:54;;;;;;;;;;;19.20;53.40;;;;;;5082378;28;19925;-58
2023/08/11 12:48:21;;;;;;;;;;;19.20;54.90;;;;;;5085172;28;19967;-58
2023/08/11 12:50:49;;;;;;;;;;;19.20;54.50;;;;;;5091185;28;19932;-58
2023/08/11 12:53:15;;;;;;;;;;;19.20;54.60;;;;;;5092106;28;20326;-58
2023/08/11 12:55:42;;;;;;;;;;;19.20;53.40;;;;;;5089877;28;20014;-58
2023/08/11 12:58:09;;;;;;;;;;;19.20;54.60;;;;;;5081949;28;20353;-59
2023/08/11 13:00:36;;;;;;;;;;;19.20;54.40;;;;;;5072587;28;19924;-59
2023/08/11 13:03:04;;;;;;;;;;;19.20;54.10;;;;;;5072673;28;19928;-59
2023/08/11 13:05:31;;;;;;;;;;;19.20;54.30;;;;;;5072477;28;19970;-59
2023/08/11 13:07:58;;;;;;;;;;;19.20;53.50;;;;;;5072366;28;19925;-59
2023/08/11 13:10:25;;;;;;;;;;;19.30;53.40;;;;;;5072386;28;19924;-59
2023/08/11 13:12:52;;;;;;;;;;;19.30;53.40;;;;;;5092098;28;20455;-59
2023/08/11 13:15:20;;;;;;;;;;;19.30;53.80;;;;;;5093066;28;19932;-59
2023/08/11 13:17:47;;;;;;;;;;;19.20;53.50;;;;;;5093527;28;19931;-59
2023/08/11 13:20:15;;;;;;;;;;;19.20;53.60;;;;;;5093205;28;19933;-59
2023/08/11 13:22:42;;;;;;;;;;;19.20;54.10;;;;;;5092884;28;19935;-59
2023/08/11 13:25:09;;;;;;;;;;;19.20;54.00;;;;;;5092695;28;19928;-59
2023/08/11 13:27:37;;;;;;;;;;;19.20;53.90;;;;;;5093374;28;19924;-59
2023/08/11 13:30:06;;;;;;;;;;;19.30;54.30;;;;;;5113560;28;19923;-58
2023/08/11 13:32:33;;;;;;;;;;;19.30;54.40;;;;;;5115867;28;19923;-58
2023/08/11 13:35:01;;;;;;;;;;;19.20;55.00;;;;;;5117018;28;20296;-56
2023/08/11 13:37:28;;;;;;;;;;;19.30;54.80;;;;;;5117506;27;19927;-57
2023/08/11 13:39:57;;;;;;;;;;;19.30;55.00;;;;;;5117048;28;20368;-58
2023/08/11 13:42:24;;;;;;;;;;;19.30;55.30;;;;;;5116734;28;19924;-57
2023/08/11 13:44:51;;;;;;;;;;;19.30;55.40;;;;;;5116462;28;19978;-56
2023/08/11 13:47:18;;;;;;;;;;;19.30;55.30;;;;;;5117019;28;19923;-57
2023/08/11 13:49:45;;;;;;;;;;;19.40;55.20;;;;;;5117303;28;19927;-58
2023/08/11 13:52:12;;;;;;;;;;;19.40;55.50;;;;;;5116589;28;19927;-57
2023/08/11 13:54:41;;;;;;;;;;;19.40;54.90;;;;;;5116562;28;20439;-57
2023/08/11 13:57:08;;;;;;;;;;;19.40;55.30;;;;;;5117074;28;19923;-57
2023/08/11 13:59:35;;;;;;;;;;;19.40;55.50;;;;;;5116293;28;19924;-57
2023/08/11 14:02:02;;;;;;;;;;;19.40;54.90;;;;;;5107090;28;19973;-57
2023/08/11 14:04:29;;;;;;;;;;;19.50;57.10;;;;;;5096387;28;20024;-57
2023/08/11 14:06:56;;;;;;;;;;;19.50;65.30;;;;;;5096203;28;19924;-57
2023/08/11 14:09:43;;;;;;;;;;;19.80;69.60;;;;;;5096053;28;19975;-56
2023/08/11 14:12:10;;;;;;;;;;;20.10;71.70;;;;;;5096234;28;19970;-58
2023/08/11 14:14:38;;;;;;;;;;;20.40;72.00;;;;;;5096425;28;20018;-57
2023/08/11 14:17:05;;;;;;;;;;;20.70;71.90;;;;;;5096081;28;19950;-57
2023/08/11 14:19:32;;;;;;;;;;;21.00;72.10;;;;;;5095212;28;19924;-56
2023/08/11 14:21:58;;;;;;;;;;;21.20;71.60;;;;;;5096021;28;19930;-57